Time;durP1;ratioP1;P1;durP2;ratioP2;P2;SDS_P1;SDS_P2;PMS_P1;PMS_P2;Temp;Humidity;BMP_temperature;BMP_pressure;BME280_temperature;BME280_humidity;BME280_pressure;Samples;Min_cycle;Max_cycle;Signal;HPM_P1;HPM_P2
2021/11/06 00:01:48;;;;;;;;;;;18.00;60.90;;;;;;4990165;28;19954;-48
2021/11/06 00:04:15;;;;;;;;;;;18.00;60.90;;;;;;4975406;28;19933;-48
2021/11/06 00:06:44;;;;;;;;;;;18.00;61.00;;;;;;4991395;28;19990;-49
2021/11/06 00:09:12;;;;;;;;;;;18.00;61.00;;;;;;4976474;28;20322;-50
2021/11/06 00:11:39;;;;;;;;;;;18.00;61.00;;;;;;4976401;28;19926;-51
2021/11/06 00:14:06;;;;;;;;;;;18.00;61.10;;;;;;4991268;28;19949;-51
2021/11/06 00:16:33;;;;;;;;;;;18.00;61.10;;;;;;4975372;28;19930;-45
2021/11/06 00:19:00;;;;;;;;;;;18.00;61.20;;;;;;4964258;28;19930;-47
2021/11/06 00:21:27;;;;;;;;;;;18.00;61.10;;;;;;4956631;28;19958;-48
2021/11/06 00:23:54;;;;;;;;;;;18.00;61.20;;;;;;4956474;28;19954;-51
2021/11/06 00:26:21;;;;;;;;;;;18.00;61.20;;;;;;4956556;28;19930;-45
2021/11/06 00:28:47;;;;;;;;;;;18.00;61.20;;;;;;4956802;28;19926;-50
2021/11/06 00:31:14;;;;;;;;;;;18.00;61.20;;;;;;4956408;28;19927;-47
2021/11/06 00:33:41;;;;;;;;;;;18.00;61.30;;;;;;4974414;28;19926;-45
2021/11/06 00:36:08;;;;;;;;;;;18.00;61.30;;;;;;4975957;28;19926;-45
2021/11/06 00:38:35;;;;;;;;;;;18.00;61.30;;;;;;4975639;28;20349;-47
2021/11/06 00:41:02;;;;;;;;;;;18.00;61.40;;;;;;4975583;28;20425;-45
2021/11/06 00:43:29;;;;;;;;;;;18.00;61.30;;;;;;4975886;28;19956;-47
2021/11/06 00:45:56;;;;;;;;;;;18.00;61.40;;;;;;4975797;28;19930;-44
2021/11/06 00:48:23;;;;;;;;;;;18.00;61.40;;;;;;4973974;28;19949;-45
2021/11/06 00:50:50;;;;;;;;;;;18.00;61.40;;;;;;4975452;28;19926;-45
2021/11/06 00:53:17;;;;;;;;;;;18.00;61.40;;;;;;4975530;28;19926;-44
2021/11/06 00:55:44;;;;;;;;;;;18.00;61.40;;;;;;4975193;28;19926;-45
2021/11/06 00:58:11;;;;;;;;;;;18.00;61.50;;;;;;4975625;28;19930;-44
2021/11/06 01:00:38;;;;;;;;;;;18.00;61.40;;;;;;4975277;28;19926;-45
2021/11/06 01:03:05;;;;;;;;;;;18.00;61.50;;;;;;4974130;28;19973;-45
2021/11/06 01:05:32;;;;;;;;;;;18.00;61.50;;;;;;4975165;28;19933;-45
2021/11/06 01:07:59;;;;;;;;;;;18.00;61.50;;;;;;4975191;28;19926;-44
2021/11/06 01:10:26;;;;;;;;;;;18.00;61.50;;;;;;4975194;28;20393;-44
2021/11/06 01:12:53;;;;;;;;;;;18.00;61.50;;;;;;4975443;28;19930;-44
2021/11/06 01:15:21;;;;;;;;;;;18.00;61.50;;;;;;4975360;28;19942;-44
2021/11/06 01:17:49;;;;;;;;;;;18.00;61.50;;;;;;4974478;28;20068;-44
2021/11/06 01:20:16;;;;;;;;;;;18.00;61.50;;;;;;4958889;28;19926;-45
2021/11/06 01:22:43;;;;;;;;;;;18.00;61.60;;;;;;4955643;28;19926;-45
2021/11/06 01:25:11;;;;;;;;;;;18.00;61.60;;;;;;4955718;28;19927;-44
2021/11/06 01:27:38;;;;;;;;;;;18.00;61.70;;;;;;4970477;28;20452;-44
2021/11/06 01:30:06;;;;;;;;;;;18.00;61.70;;;;;;4955987;28;19927;-44
2021/11/06 01:32:33;;;;;;;;;;;18.00;61.70;;;;;;4959816;28;19926;-44
2021/11/06 01:35:01;;;;;;;;;;;18.00;61.80;;;;;;4973977;28;19930;-44
2021/11/06 01:37:28;;;;;;;;;;;18.00;61.80;;;;;;4974886;28;20306;-44
2021/11/06 01:39:55;;;;;;;;;;;18.00;61.80;;;;;;4974840;28;20392;-44
2021/11/06 01:42:23;;;;;;;;;;;18.00;61.70;;;;;;4975165;28;19977;-45
2021/11/06 01:44:50;;;;;;;;;;;18.00;61.80;;;;;;4975108;28;19966;-44
2021/11/06 01:47:17;;;;;;;;;;;18.00;61.80;;;;;;4973691;28;20012;-44
2021/11/06 01:49:44;;;;;;;;;;;18.00;61.80;;;;;;4974132;28;19926;-44
2021/11/06 01:52:11;;;;;;;;;;;18.00;61.80;;;;;;4975045;28;19981;-44
2021/11/06 01:54:38;;;;;;;;;;;18.00;61.90;;;;;;4974378;28;19973;-45
2021/11/06 01:57:05;;;;;;;;;;;18.00;61.80;;;;;;4974710;28;19933;-45
2021/11/06 01:59:32;;;;;;;;;;;18.00;61.90;;;;;;4974692;28;20378;-44
2021/11/06 02:02:00;;;;;;;;;;;18.00;61.90;;;;;;4974942;28;20013;-45
2021/11/06 02:04:27;;;;;;;;;;;18.00;61.90;;;;;;4973155;28;19988;-46
2021/11/06 02:06:54;;;;;;;;;;;18.00;62.00;;;;;;4976844;28;20337;-48
2021/11/06 02:09:21;;;;;;;;;;;18.00;62.00;;;;;;4978375;28;20453;-47
2021/11/06 02:11:48;;;;;;;;;;;18.00;62.00;;;;;;4978632;28;19948;-52
2021/11/06 02:14:15;;;;;;;;;;;18.00;62.00;;;;;;4978506;28;19926;-44
2021/11/06 02:16:42;;;;;;;;;;;18.00;62.00;;;;;;4978555;28;19926;-44
2021/11/06 02:19:09;;;;;;;;;;;18.00;62.10;;;;;;4976350;28;19926;-44
2021/11/06 02:21:37;;;;;;;;;;;18.00;62.10;;;;;;4978456;28;19926;-44
2021/11/06 02:24:04;;;;;;;;;;;18.00;62.10;;;;;;4978283;28;19927;-44
2021/11/06 02:26:31;;;;;;;;;;;18.00;62.10;;;;;;4978345;28;19977;-44
2021/11/06 02:29:11;;;;;;;;;;;18.00;62.10;;;;;;4978031;28;19926;-45
2021/11/06 02:31:38;;;;;;;;;;;18.00;62.10;;;;;;4978253;28;20270;-44
2021/11/06 02:34:06;;;;;;;;;;;18.00;62.10;;;;;;4976437;28;19973;-46
2021/11/06 02:36:33;;;;;;;;;;;18.00;62.20;;;;;;4977994;28;20322;-45
2021/11/06 02:39:00;;;;;;;;;;;18.00;62.20;;;;;;4977850;28;20337;-45
2021/11/06 02:41:27;;;;;;;;;;;18.00;62.20;;;;;;4977760;28;19974;-45
2021/11/06 02:43:56;;;;;;;;;;;18.00;62.20;;;;;;4978025;28;19930;-50
2021/11/06 02:46:24;;;;;;;;;;;18.00;62.20;;;;;;4978015;28;19926;-47
2021/11/06 02:48:51;;;;;;;;;;;18.00;62.20;;;;;;4976630;28;19926;-44
2021/11/06 02:51:18;;;;;;;;;;;18.00;62.20;;;;;;4961223;28;19980;-45
2021/11/06 02:53:45;;;;;;;;;;;18.00;62.20;;;;;;4958142;28;19927;-44
2021/11/06 02:56:12;;;;;;;;;;;18.00;62.30;;;;;;4958285;28;19931;-46
2021/11/06 02:58:39;;;;;;;;;;;18.00;62.30;;;;;;4958495;28;20275;-44
2021/11/06 03:01:06;;;;;;;;;;;18.00;62.30;;;;;;4958165;28;20361;-49
2021/11/06 03:03:33;;;;;;;;;;;18.00;62.30;;;;;;4962427;28;19927;-44
2021/11/06 03:06:00;;;;;;;;;;;18.00;62.30;;;;;;4964770;28;19973;-48
2021/11/06 03:08:27;;;;;;;;;;;18.00;62.30;;;;;;4958030;28;20029;-48
2021/11/06 03:10:54;;;;;;;;;;;18.00;62.40;;;;;;4958266;28;19927;-46
2021/11/06 03:13:22;;;;;;;;;;;18.00;62.40;;;;;;4958235;28;20005;-44
2021/11/06 03:15:48;;;;;;;;;;;18.00;62.40;;;;;;4958105;28;19930;-46
2021/11/06 03:18:16;;;;;;;;;;;18.00;62.50;;;;;;4957384;28;20408;-45
2021/11/06 03:20:43;;;;;;;;;;;18.00;62.50;;;;;;4976472;28;20386;-46
2021/11/06 03:23:10;;;;;;;;;;;18.00;62.50;;;;;;4977268;28;20333;-46
2021/11/06 03:25:37;;;;;;;;;;;18.00;62.50;;;;;;4977348;28;19977;-45
2021/11/06 03:28:04;;;;;;;;;;;18.00;62.50;;;;;;4977792;28;20020;-47
2021/11/06 03:30:30;;;;;;;;;;;17.90;62.40;;;;;;4976937;28;19926;-50
2021/11/06 03:32:57;;;;;;;;;;;18.00;62.50;;;;;;4977180;28;19989;-47
2021/11/06 03:35:24;;;;;;;;;;;18.00;62.60;;;;;;4974764;28;20393;-49
2021/11/06 03:37:56;;;;;;;;;;;18.00;62.50;;;;;;4977133;28;20306;-48
2021/11/06 03:40:23;;;;;;;;;;;18.00;62.50;;;;;;4977052;28;20017;-48
2021/11/06 03:42:50;;;;;;;;;;;18.00;62.60;;;;;;4976717;28;19949;-51
2021/11/06 03:45:17;;;;;;;;;;;18.00;62.60;;;;;;4976639;28;19933;-51
2021/11/06 03:47:44;;;;;;;;;;;17.90;62.50;;;;;;4976780;28;19926;-49
2021/11/06 03:50:11;;;;;;;;;;;18.00;62.60;;;;;;4974980;28;19969;-47
2021/11/06 03:52:39;;;;;;;;;;;17.90;62.50;;;;;;4976782;28;19926;-45
2021/11/06 03:55:07;;;;;;;;;;;17.90;62.60;;;;;;4976123;28;19933;-44
2021/11/06 03:57:34;;;;;;;;;;;17.90;62.50;;;;;;4976421;28;19976;-46
2021/11/06 04:00:04;;;;;;;;;;;18.00;62.60;;;;;;4976683;28;19957;-45
2021/11/06 04:02:32;;;;;;;;;;;17.90;62.60;;;;;;4976307;28;19933;-47
2021/11/06 04:04:59;;;;;;;;;;;17.90;62.60;;;;;;4975591;28;19926;-48
2021/11/06 04:07:26;;;;;;;;;;;17.90;62.60;;;;;;4975480;28;20017;-50
2021/11/06 04:09:53;;;;;;;;;;;18.00;62.70;;;;;;4976192;28;19933;-48
2021/11/06 04:12:20;;;;;;;;;;;17.90;62.70;;;;;;4976151;28;19973;-50
2021/11/06 04:14:47;;;;;;;;;;;17.90;62.70;;;;;;4976302;28;20297;-47
2021/11/06 04:17:14;;;;;;;;;;;18.00;62.80;;;;;;4975958;28;19981;-46
2021/11/06 04:19:41;;;;;;;;;;;17.90;62.70;;;;;;4975439;28;19930;-47
2021/11/06 04:22:08;;;;;;;;;;;17.90;62.70;;;;;;4975074;28;19981;-44
2021/11/06 04:24:36;;;;;;;;;;;18.00;62.80;;;;;;4976088;28;19926;-48
2021/11/06 04:27:03;;;;;;;;;;;17.90;62.80;;;;;;4975878;28;19926;-51
2021/11/06 04:29:30;;;;;;;;;;;18.00;62.90;;;;;;4975519;28;19980;-49
2021/11/06 04:31:58;;;;;;;;;;;17.90;62.80;;;;;;4975993;28;19936;-44
2021/11/06 04:34:25;;;;;;;;;;;17.90;62.80;;;;;;4974962;28;19926;-44
2021/11/06 04:36:52;;;;;;;;;;;17.90;62.80;;;;;;4974640;28;19933;-47
2021/11/06 04:39:19;;;;;;;;;;;17.90;62.80;;;;;;4975919;28;19926;-44
2021/11/06 04:41:46;;;;;;;;;;;17.90;62.90;;;;;;4975616;28;19933;-45
2021/11/06 04:44:13;;;;;;;;;;;17.90;62.80;;;;;;4975884;28;19981;-45
2021/11/06 04:46:40;;;;;;;;;;;17.90;62.90;;;;;;4975842;28;19930;-48
2021/11/06 04:49:07;;;;;;;;;;;17.90;62.90;;;;;;4989696;28;19984;-44
2021/11/06 04:51:34;;;;;;;;;;;17.90;62.90;;;;;;4968010;28;20298;-47
2021/11/06 04:54:01;;;;;;;;;;;17.90;62.90;;;;;;4956304;28;19994;-51
2021/11/06 04:56:28;;;;;;;;;;;17.90;62.90;;;;;;4956306;29;20341;-51
2021/11/06 04:58:55;;;;;;;;;;;17.90;62.90;;;;;;4956912;28;19997;-47
2021/11/06 05:01:22;;;;;;;;;;;17.90;63.00;;;;;;4956023;28;19966;-51
2021/11/06 05:03:49;;;;;;;;;;;17.90;62.90;;;;;;4956022;28;19930;-47
2021/11/06 05:06:17;;;;;;;;;;;17.90;63.00;;;;;;4970382;28;20000;-45
2021/11/06 05:08:43;;;;;;;;;;;17.90;62.90;;;;;;4990070;28;19973;-50
2021/11/06 05:11:10;;;;;;;;;;;17.90;63.00;;;;;;4975489;28;19997;-45
2021/11/06 05:13:37;;;;;;;;;;;17.90;62.90;;;;;;4975433;28;19977;-45
2021/11/06 05:16:05;;;;;;;;;;;17.90;63.00;;;;;;4975354;28;19981;-45
2021/11/06 05:18:31;;;;;;;;;;;17.90;63.00;;;;;;4975339;28;19961;-49
2021/11/06 05:20:58;;;;;;;;;;;17.90;63.00;;;;;;4973664;28;20282;-46
2021/11/06 05:23:25;;;;;;;;;;;17.90;63.00;;;;;;4975040;28;20337;-46
2021/11/06 05:25:53;;;;;;;;;;;17.90;63.00;;;;;;4975291;28;19926;-46
2021/11/06 05:28:20;;;;;;;;;;;17.90;63.00;;;;;;4975297;28;19969;-47
2021/11/06 05:30:47;;;;;;;;;;;17.90;63.10;;;;;;4974949;28;19930;-45
2021/11/06 05:33:14;;;;;;;;;;;17.90;63.00;;;;;;4976081;28;19965;-45
2021/11/06 05:35:41;;;;;;;;;;;17.90;63.10;;;;;;4974165;28;20017;-45
2021/11/06 05:38:08;;;;;;;;;;;17.90;63.00;;;;;;4973930;28;19977;-44
2021/11/06 05:40:35;;;;;;;;;;;17.90;63.10;;;;;;4974880;28;19973;-45
2021/11/06 05:43:02;;;;;;;;;;;17.90;63.10;;;;;;4978796;28;19980;-45
2021/11/06 05:45:29;;;;;;;;;;;17.90;63.10;;;;;;4978841;28;19926;-44
2021/11/06 05:47:56;;;;;;;;;;;17.90;63.10;;;;;;4979015;28;19997;-44
2021/11/06 05:50:24;;;;;;;;;;;17.90;63.10;;;;;;4978067;28;19980;-45
2021/11/06 05:52:51;;;;;;;;;;;17.90;63.20;;;;;;4978006;28;19926;-45
2021/11/06 05:55:18;;;;;;;;;;;17.90;63.10;;;;;;4978481;28;19938;-45
2021/11/06 05:57:45;;;;;;;;;;;17.90;63.20;;;;;;4978899;28;19976;-45
2021/11/06 06:00:13;;;;;;;;;;;17.90;63.20;;;;;;4978864;28;19947;-45
2021/11/06 06:02:40;;;;;;;;;;;17.90;63.20;;;;;;4978827;28;20333;-44
2021/11/06 06:05:10;;;;;;;;;;;17.90;63.20;;;;;;4977506;28;20205;-45
2021/11/06 06:07:38;;;;;;;;;;;17.90;63.20;;;;;;4977302;28;19930;-45
2021/11/06 06:10:06;;;;;;;;;;;17.90;63.20;;;;;;4978683;28;20274;-44
2021/11/06 06:12:34;;;;;;;;;;;17.90;63.20;;;;;;4978582;28;19926;-44
2021/11/06 06:15:01;;;;;;;;;;;17.90;63.20;;;;;;4978413;28;19926;-45
2021/11/06 06:17:28;;;;;;;;;;;17.90;63.20;;;;;;4978474;28;20313;-45
2021/11/06 06:19:56;;;;;;;;;;;17.90;63.20;;;;;;4978098;28;19932;-48
2021/11/06 06:22:23;;;;;;;;;;;17.90;63.20;;;;;;4977039;28;19973;-46
2021/11/06 06:24:51;;;;;;;;;;;17.90;63.20;;;;;;4978009;28;19984;-45
2021/11/06 06:27:18;;;;;;;;;;;17.90;63.20;;;;;;4978068;28;19930;-45
2021/11/06 06:29:45;;;;;;;;;;;17.90;63.10;;;;;;4978030;28;19926;-45
2021/11/06 06:32:12;;;;;;;;;;;17.90;63.20;;;;;;4978277;28;19942;-45
2021/11/06 06:34:39;;;;;;;;;;;17.90;63.20;;;;;;4977879;28;19930;-45
2021/11/06 06:37:06;;;;;;;;;;;17.90;63.20;;;;;;4976415;28;19930;-45
2021/11/06 06:39:34;;;;;;;;;;;17.90;63.20;;;;;;4978104;28;19933;-46
2021/11/06 06:42:01;;;;;;;;;;;17.90;63.20;;;;;;4977806;28;19957;-45
2021/11/06 06:44:28;;;;;;;;;;;17.90;63.10;;;;;;4978070;28;19974;-45
2021/11/06 06:46:55;;;;;;;;;;;17.90;63.20;;;;;;4992629;28;19926;-45
2021/11/06 06:49:22;;;;;;;;;;;17.90;63.10;;;;;;4992912;28;19926;-45
2021/11/06 06:51:49;;;;;;;;;;;17.90;63.20;;;;;;4976493;28;19926;-44
2021/11/06 06:54:17;;;;;;;;;;;17.90;63.10;;;;;;4976772;28;20279;-45
2021/11/06 06:56:44;;;;;;;;;;;17.90;63.10;;;;;;4977505;28;20337;-44
2021/11/06 06:59:12;;;;;;;;;;;17.90;63.10;;;;;;4977847;28;19984;-45
2021/11/06 07:01:39;;;;;;;;;;;18.00;63.20;;;;;;4992305;28;19926;-45
2021/11/06 07:04:06;;;;;;;;;;;18.00;63.20;;;;;;4977425;28;19930;-45
2021/11/06 07:06:33;;;;;;;;;;;18.00;63.20;;;;;;4976368;28;19970;-48
2021/11/06 07:09:00;;;;;;;;;;;18.00;63.20;;;;;;4976434;28;19934;-45
2021/11/06 07:11:27;;;;;;;;;;;18.00;63.20;;;;;;4977585;28;19930;-47
2021/11/06 07:13:54;;;;;;;;;;;18.00;63.20;;;;;;4977558;28;20065;-46
2021/11/06 07:16:21;;;;;;;;;;;18.00;63.20;;;;;;4977451;28;19926;-47
2021/11/06 07:18:49;;;;;;;;;;;18.00;63.10;;;;;;4977404;28;19941;-45
2021/11/06 07:21:15;;;;;;;;;;;18.00;63.10;;;;;;4976398;28;19989;-46
2021/11/06 07:23:42;;;;;;;;;;;18.00;63.10;;;;;;4976185;28;19930;-52
2021/11/06 07:26:10;;;;;;;;;;;18.00;63.20;;;;;;4977342;28;19926;-51
2021/11/06 07:28:37;;;;;;;;;;;18.00;63.20;;;;;;4977294;28;19926;-50
2021/11/06 07:31:04;;;;;;;;;;;18.00;63.20;;;;;;4977214;28;19926;-53
2021/11/06 07:33:31;;;;;;;;;;;18.00;63.20;;;;;;4976873;28;20385;-52
2021/11/06 07:35:58;;;;;;;;;;;18.00;63.20;;;;;;4975786;28;19980;-52
2021/11/06 07:38:25;;;;;;;;;;;18.00;63.20;;;;;;4976068;28;19926;-51
2021/11/06 07:40:52;;;;;;;;;;;18.00;63.20;;;;;;4977011;28;20345;-52
2021/11/06 07:43:19;;;;;;;;;;;18.00;63.20;;;;;;4976640;28;20382;-52
2021/11/06 07:45:46;;;;;;;;;;;18.00;63.20;;;;;;4976991;28;20342;-48
2021/11/06 07:48:13;;;;;;;;;;;18.10;63.30;;;;;;4976810;28;19926;-52
2021/11/06 07:50:40;;;;;;;;;;;18.10;63.20;;;;;;4976834;28;19930;-45
2021/11/06 07:53:07;;;;;;;;;;;18.00;63.10;;;;;;4974602;28;20072;-50
2021/11/06 07:55:34;;;;;;;;;;;18.00;63.10;;;;;;4975953;28;19927;-47
2021/11/06 07:58:01;;;;;;;;;;;18.00;63.10;;;;;;4976629;28;19981;-48
2021/11/06 08:00:28;;;;;;;;;;;18.10;63.20;;;;;;4976385;28;20382;-48
2021/11/06 08:02:55;;;;;;;;;;;18.10;63.20;;;;;;4976257;28;19977;-47
2021/11/06 08:05:22;;;;;;;;;;;18.10;63.20;;;;;;4975985;28;19977;-45
2021/11/06 08:07:49;;;;;;;;;;;18.10;63.20;;;;;;4974590;28;20444;-45
2021/11/06 08:10:16;;;;;;;;;;;18.10;63.20;;;;;;4976361;28;19993;-44
2021/11/06 08:12:43;;;;;;;;;;;18.10;63.10;;;;;;4976392;28;19937;-45
2021/11/06 08:15:12;;;;;;;;;;;18.10;63.10;;;;;;4976278;28;20314;-44
2021/11/06 08:17:40;;;;;;;;;;;18.10;63.20;;;;;;4990841;28;19930;-46
2021/11/06 08:20:07;;;;;;;;;;;18.10;63.20;;;;;;4976318;28;19926;-45
2021/11/06 08:22:34;;;;;;;;;;;18.10;63.20;;;;;;4975281;28;19926;-44
2021/11/06 08:25:01;;;;;;;;;;;18.10;63.20;;;;;;4975093;28;19948;-44
2021/11/06 08:27:28;;;;;;;;;;;18.10;63.20;;;;;;4976150;28;20275;-45
2021/11/06 08:29:55;;;;;;;;;;;18.10;63.10;;;;;;4975789;28;20378;-45
2021/11/06 08:32:22;;;;;;;;;;;18.10;63.10;;;;;;4976023;28;19973;-44
2021/11/06 08:34:50;;;;;;;;;;;18.10;63.10;;;;;;4976039;28;19926;-44
2021/11/06 08:37:17;;;;;;;;;;;18.10;63.10;;;;;;4974712;28;19945;-44
2021/11/06 08:39:44;;;;;;;;;;;18.10;63.10;;;;;;4975223;28;20333;-44
2021/11/06 08:42:11;;;;;;;;;;;18.10;63.10;;;;;;4975608;28;19926;-50
2021/11/06 08:44:39;;;;;;;;;;;18.10;63.00;;;;;;4975632;28;20389;-48
2021/11/06 08:47:06;;;;;;;;;;;18.10;63.00;;;;;;4990587;28;19930;-48
2021/11/06 08:49:33;;;;;;;;;;;18.10;63.10;;;;;;4975808;28;19933;-44
2021/11/06 08:52:00;;;;;;;;;;;18.20;63.20;;;;;;4974819;28;19934;-49
2021/11/06 08:54:27;;;;;;;;;;;18.20;63.10;;;;;;4974149;28;19953;-46
2021/11/06 08:56:55;;;;;;;;;;;18.20;63.10;;;;;;4975425;28;19926;-50
2021/11/06 08:59:23;;;;;;;;;;;18.20;63.20;;;;;;4989982;28;19949;-51
2021/11/06 09:01:51;;;;;;;;;;;18.20;63.10;;;;;;4975617;28;19926;-44
2021/11/06 09:04:18;;;;;;;;;;;18.20;63.20;;;;;;4975292;28;20398;-44
2021/11/06 09:06:46;;;;;;;;;;;18.20;63.10;;;;;;4974514;28;19981;-45
2021/11/06 09:09:17;;;;;;;;;;;18.20;63.10;;;;;;4974489;28;19973;-47
2021/11/06 09:11:45;;;;;;;;;;;18.20;63.10;;;;;;4975224;28;19953;-45
2021/11/06 09:14:13;;;;;;;;;;;18.20;63.10;;;;;;4975106;28;19926;-45
2021/11/06 09:16:40;;;;;;;;;;;18.20;63.10;;;;;;4974958;28;20017;-45
2021/11/06 09:19:07;;;;;;;;;;;18.20;63.10;;;;;;4974936;28;19981;-45
2021/11/06 09:21:34;;;;;;;;;;;18.20;63.00;;;;;;4989879;28;19950;-45
2021/11/06 09:24:04;;;;;;;;;;;18.20;63.00;;;;;;4973078;28;19929;-45
2021/11/06 09:26:33;;;;;;;;;;;18.20;63.00;;;;;;4975002;28;20419;-45
2021/11/06 09:29:00;;;;;;;;;;;18.20;63.10;;;;;;4974976;28;20361;-46
2021/11/06 09:31:28;;;;;;;;;;;18.20;63.00;;;;;;4975256;28;19926;-44
2021/11/06 09:33:55;;;;;;;;;;;18.20;63.00;;;;;;4975229;28;19989;-45
2021/11/06 09:36:22;;;;;;;;;;;18.20;63.00;;;;;;4975136;28;19969;-45
2021/11/06 09:38:50;;;;;;;;;;;18.20;63.00;;;;;;4973389;28;20341;-46
2021/11/06 09:41:17;;;;;;;;;;;18.20;63.00;;;;;;4974814;28;19992;-45
2021/11/06 09:43:45;;;;;;;;;;;18.20;62.90;;;;;;4975177;28;20349;-45
2021/11/06 09:46:12;;;;;;;;;;;18.20;62.90;;;;;;4975120;28;19926;-45
2021/11/06 09:48:42;;;;;;;;;;;18.30;63.00;;;;;;4974737;28;19930;-44
2021/11/06 09:51:10;;;;;;;;;;;18.30;63.00;;;;;;4974722;28;19930;-45
2021/11/06 09:53:40;;;;;;;;;;;18.30;63.00;;;;;;4973745;28;19926;-45
2021/11/06 09:56:11;;;;;;;;;;;18.30;63.00;;;;;;4974008;28;19930;-45
2021/11/06 09:58:39;;;;;;;;;;;18.30;63.00;;;;;;4974727;28;19984;-45
2021/11/06 10:01:06;;;;;;;;;;;18.30;63.70;;;;;;4974683;28;19926;-45
2021/11/06 10:03:34;;;;;;;;;;;18.30;63.00;;;;;;4974990;28;20030;-47
2021/11/06 10:06:01;;;;;;;;;;;18.30;63.00;;;;;;4974639;28;19926;-47
2021/11/06 10:08:30;;;;;;;;;;;18.30;63.00;;;;;;4973691;28;19977;-45
2021/11/06 10:11:00;;;;;;;;;;;18.30;62.90;;;;;;4973919;28;19926;-45
2021/11/06 10:13:28;;;;;;;;;;;18.30;63.00;;;;;;4974907;28;19969;-46
2021/11/06 10:15:57;;;;;;;;;;;18.30;63.00;;;;;;4974775;28;20266;-45
2021/11/06 10:18:25;;;;;;;;;;;18.30;63.00;;;;;;4974714;28;19962;-46
2021/11/06 10:21:00;;;;;;;;;;;18.30;63.00;;;;;;4974473;28;19947;-45
2021/11/06 10:23:28;;;;;;;;;;;18.30;63.00;;;;;;4973650;28;19966;-45
2021/11/06 10:26:27;;;;;;;;;;;18.30;63.00;;;;;;4973908;28;20338;-45
2021/11/06 10:29:14;;;;;;;;;;;18.30;62.90;;;;;;4976042;28;20297;-45
2021/11/06 10:31:53;;;;;;;;;;;18.30;62.90;;;;;;4976089;28;19926;-44
2021/11/06 10:34:21;;;;;;;;;;;18.30;63.00;;;;;;4975990;28;19930;-45
2021/11/06 10:36:56;;;;;;;;;;;18.30;63.00;;;;;;4975810;28;19926;-46
2021/11/06 10:39:23;;;;;;;;;;;18.30;63.00;;;;;;4974590;28;20378;-49
2021/11/06 10:41:51;;;;;;;;;;;18.40;63.10;;;;;;4975201;28;20309;-44
2021/11/06 10:44:21;;;;;;;;;;;18.40;63.10;;;;;;4975752;28;20361;-46
2021/11/06 10:46:52;;;;;;;;;;;18.40;63.10;;;;;;4975611;28;19981;-45
2021/11/06 10:49:35;;;;;;;;;;;18.30;63.00;;;;;;4975682;28;20382;-45
2021/11/06 10:52:12;;;;;;;;;;;18.30;63.00;;;;;;4975821;28;19978;-45
2021/11/06 10:55:02;;;;;;;;;;;18.40;63.10;;;;;;4973596;28;19954;-45
2021/11/06 10:57:30;;;;;;;;;;;18.40;63.00;;;;;;4963591;28;19930;-46
2021/11/06 11:00:06;;;;;;;;;;;18.40;63.00;;;;;;4975541;28;20070;-45
2021/11/06 11:02:33;;;;;;;;;;;18.40;62.90;;;;;;4975473;28;19930;-45
2021/11/06 11:05:00;;;;;;;;;;;18.40;63.00;;;;;;4976910;28;19930;-45
2021/11/06 11:07:27;;;;;;;;;;;18.40;62.90;;;;;;4977327;28;20398;-48
2021/11/06 11:09:54;;;;;;;;;;;18.40;62.90;;;;;;4975734;28;20017;-45
2021/11/06 11:12:22;;;;;;;;;;;18.40;63.00;;;;;;4957081;29;19993;-45
2021/11/06 11:14:59;;;;;;;;;;;18.40;62.90;;;;;;4957904;28;19981;-45
2021/11/06 11:17:39;;;;;;;;;;;18.40;62.90;;;;;;4957818;28;19978;-50
2021/11/06 11:20:27;;;;;;;;;;;18.40;62.90;;;;;;4957854;28;20378;-51
2021/11/06 11:23:07;;;;;;;;;;;18.40;62.90;;;;;;4957723;28;19934;-52
2021/11/06 11:25:35;;;;;;;;;;;18.40;62.90;;;;;;4962464;28;19929;-51
2021/11/06 11:28:03;;;;;;;;;;;18.40;62.90;;;;;;4977339;28;19929;-51
2021/11/06 11:30:30;;;;;;;;;;;18.40;62.80;;;;;;4976738;28;19933;-51
2021/11/06 11:32:59;;;;;;;;;;;18.40;62.80;;;;;;4976923;28;19926;-46
2021/11/06 11:35:26;;;;;;;;;;;18.40;62.90;;;;;;4976893;28;19926;-46
2021/11/06 11:37:55;;;;;;;;;;;18.40;62.80;;;;;;4976717;28;19940;-45
2021/11/06 11:40:23;;;;;;;;;;;18.40;62.80;;;;;;4974160;28;19930;-45
2021/11/06 11:42:57;;;;;;;;;;;18.40;62.90;;;;;;4976705;28;19930;-45
2021/11/06 11:45:47;;;;;;;;;;;18.40;62.90;;;;;;4976756;28;19926;-45
2021/11/06 11:48:25;;;;;;;;;;;18.40;62.80;;;;;;4976822;28;20349;-49
2021/11/06 11:50:58;;;;;;;;;;;18.40;62.80;;;;;;4976874;28;19933;-49
2021/11/06 11:53:29;;;;;;;;;;;18.40;63.60;;;;;;4976552;28;19926;-45
2021/11/06 11:55:57;;;;;;;;;;;18.40;62.90;;;;;;4975454;28;19926;-51
2021/11/06 11:58:26;;;;;;;;;;;18.40;62.80;;;;;;4977299;28;20278;-53
2021/11/06 12:00:58;;;;;;;;;;;18.40;62.80;;;;;;4976331;28;20007;-49
2021/11/06 12:03:41;;;;;;;;;;;18.40;62.80;;;;;;4976306;28;19934;-45
2021/11/06 12:06:30;;;;;;;;;;;18.40;62.90;;;;;;4976352;28;20378;-49
2021/11/06 12:09:06;;;;;;;;;;;18.40;62.90;;;;;;4975630;28;19934;-45
2021/11/06 12:11:34;;;;;;;;;;;18.40;62.90;;;;;;4975626;28;19930;-51
2021/11/06 12:14:15;;;;;;;;;;;18.40;63.00;;;;;;4976132;28;19958;-46
2021/11/06 12:16:47;;;;;;;;;;;18.50;63.10;;;;;;4976310;28;20043;-50
2021/11/06 12:19:32;;;;;;;;;;;18.40;63.00;;;;;;4976334;28;20350;-51
2021/11/06 12:22:11;;;;;;;;;;;18.40;63.00;;;;;;4976327;28;19938;-51
2021/11/06 12:24:39;;;;;;;;;;;18.40;63.00;;;;;;4974864;28;19927;-48
2021/11/06 12:27:08;;;;;;;;;;;18.40;63.10;;;;;;4964162;28;19974;-45
2021/11/06 12:29:53;;;;;;;;;;;18.40;63.10;;;;;;4957730;28;19927;-45
2021/11/06 12:32:23;;;;;;;;;;;18.40;63.10;;;;;;4956829;28;19973;-48
2021/11/06 12:35:11;;;;;;;;;;;18.40;63.10;;;;;;4956431;28;19927;-45
2021/11/06 12:37:38;;;;;;;;;;;18.40;63.10;;;;;;4955879;28;19927;-45
2021/11/06 12:40:18;;;;;;;;;;;18.40;63.10;;;;;;4965029;28;20060;-50
2021/11/06 12:43:04;;;;;;;;;;;18.40;63.10;;;;;;4975194;28;19926;-48
2021/11/06 12:45:32;;;;;;;;;;;18.40;63.20;;;;;;4975915;28;19930;-46
2021/11/06 12:48:20;;;;;;;;;;;18.40;63.10;;;;;;4976307;28;19926;-45
2021/11/06 12:51:05;;;;;;;;;;;18.40;63.20;;;;;;4975621;28;19930;-49
2021/11/06 12:53:37;;;;;;;;;;;18.40;63.20;;;;;;4975111;28;19950;-46
2021/11/06 12:56:08;;;;;;;;;;;18.40;63.20;;;;;;4973268;28;19926;-45
2021/11/06 12:58:36;;;;;;;;;;;18.50;63.20;;;;;;4976233;28;19926;-45
2021/11/06 13:01:20;;;;;;;;;;;18.50;63.30;;;;;;4975357;28;19977;-45
2021/11/06 13:03:47;;;;;;;;;;;18.50;63.40;;;;;;4975275;28;20298;-45
2021/11/06 13:06:34;;;;;;;;;;;18.50;63.20;;;;;;4975614;28;19970;-45
2021/11/06 13:09:01;;;;;;;;;;;18.50;63.30;;;;;;4975543;28;19973;-45
2021/11/06 13:11:46;;;;;;;;;;;18.50;63.40;;;;;;4971214;28;20386;-44
2021/11/06 13:14:32;;;;;;;;;;;18.50;63.40;;;;;;4956203;28;20314;-45
2021/11/06 13:17:01;;;;;;;;;;;18.50;63.40;;;;;;4955730;28;19930;-47
2021/11/06 13:19:36;;;;;;;;;;;18.50;63.40;;;;;;4956104;28;19993;-45
2021/11/06 13:22:03;;;;;;;;;;;18.50;63.50;;;;;;4956104;28;19926;-45
2021/11/06 13:24:50;;;;;;;;;;;18.50;63.50;;;;;;4955949;28;19927;-45
2021/11/06 13:27:36;;;;;;;;;;;18.50;63.50;;;;;;4967040;28;20346;-45
2021/11/06 13:30:20;;;;;;;;;;;18.50;63.50;;;;;;4954838;29;19934;-44
2021/11/06 13:32:51;;;;;;;;;;;18.50;63.60;;;;;;4955659;28;20378;-45
2021/11/06 13:35:19;;;;;;;;;;;18.50;63.60;;;;;;4955665;28;20445;-45
2021/11/06 13:38:06;;;;;;;;;;;18.50;63.60;;;;;;4954686;29;19993;-46
2021/11/06 13:40:45;;;;;;;;;;;18.50;63.60;;;;;;4962499;28;19926;-45
2021/11/06 13:43:17;;;;;;;;;;;18.50;63.60;;;;;;4974267;28;20017;-44
2021/11/06 13:46:01;;;;;;;;;;;18.50;63.50;;;;;;4975123;28;19926;-45
2021/11/06 13:48:29;;;;;;;;;;;18.50;63.60;;;;;;4975076;28;20301;-45
2021/11/06 13:51:16;;;;;;;;;;;18.50;63.60;;;;;;4975111;28;19973;-45
2021/11/06 13:54:01;;;;;;;;;;;18.50;63.60;;;;;;4974748;28;19930;-47
2021/11/06 13:56:30;;;;;;;;;;;18.50;63.70;;;;;;4973795;28;19926;-46
2021/11/06 13:58:58;;;;;;;;;;;18.50;63.70;;;;;;4973659;28;19926;-44
2021/11/06 14:01:26;;;;;;;;;;;18.50;63.70;;;;;;4974729;28;19926;-45
2021/11/06 14:03:56;;;;;;;;;;;18.50;63.70;;;;;;4978370;28;20390;-46
2021/11/06 14:06:24;;;;;;;;;;;18.50;63.70;;;;;;4978820;28;19926;-44
2021/11/06 14:09:04;;;;;;;;;;;18.50;63.80;;;;;;4978755;28;19934;-44
2021/11/06 14:11:44;;;;;;;;;;;18.50;64.50;;;;;;4977448;28;19926;-45
2021/11/06 14:14:11;;;;;;;;;;;18.50;63.70;;;;;;4977986;28;19973;-45
2021/11/06 14:16:38;;;;;;;;;;;18.50;63.80;;;;;;4978509;28;19933;-44
2021/11/06 14:19:06;;;;;;;;;;;18.50;63.80;;;;;;4978313;28;20377;-44
2021/11/06 14:21:38;;;;;;;;;;;18.50;63.80;;;;;;4978261;28;19930;-44
2021/11/06 14:24:06;;;;;;;;;;;18.50;63.80;;;;;;4978780;28;19973;-46
2021/11/06 14:26:41;;;;;;;;;;;18.50;63.80;;;;;;4977296;28;19976;-44
2021/11/06 14:29:10;;;;;;;;;;;18.50;63.80;;;;;;4977272;28;19973;-44